createdAt,value
2022-09-01T00:02:08.855Z,99.90
2022-09-01T00:05:04.964Z,99.90
2022-09-01T00:08:00.798Z,99.90
2022-09-01T00:10:53.371Z,99.90
2022-09-01T00:13:44.967Z,99.90
2022-09-01T00:16:36.133Z,99.90
2022-09-01T00:19:27.936Z,99.90
2022-09-01T00:22:21.521Z,99.90
2022-09-01T00:25:13.170Z,99.90
2022-09-01T00:28:05.561Z,99.90
2022-09-01T00:30:56.634Z,99.90
2022-09-01T00:33:47.084Z,99.90
2022-09-01T00:36:38.017Z,99.90
2022-09-01T00:39:31.467Z,99.90
2022-09-01T00:42:22.367Z,99.90
2022-09-01T00:45:14.300Z,99.90
2022-09-01T00:48:06.667Z,99.90
2022-09-01T00:50:57.253Z,99.90
2022-09-01T00:53:49.366Z,99.90
2022-09-01T00:56:46.528Z,99.90
2022-09-01T00:59:42.203Z,99.90
2022-09-01T01:02:34.581Z,99.90
2022-09-01T01:05:28.486Z,99.90
2022-09-01T01:08:21.948Z,99.90
2022-09-01T01:11:18.173Z,99.90
2022-09-01T01:14:13.596Z,99.90
2022-09-01T01:17:07.841Z,99.90
2022-09-01T01:20:12.946Z,99.90
2022-09-01T01:23:13.903Z,99.90
2022-09-01T01:26:10.620Z,99.90
2022-09-01T01:29:03.171Z,99.90
2022-09-01T01:31:55.998Z,99.90
2022-09-01T01:34:48.822Z,99.90
2022-09-01T01:37:39.452Z,99.90
2022-09-01T01:40:33.492Z,99.90
2022-09-01T01:43:29.369Z,99.90
2022-09-01T01:46:20.703Z,99.90
2022-09-01T01:49:17.527Z,99.90
2022-09-01T01:52:09.256Z,99.90
2022-09-01T01:55:04.512Z,99.90
2022-09-01T01:57:56.513Z,99.90
2022-09-01T02:00:54.453Z,99.90
2022-09-01T02:03:46.742Z,99.90
2022-09-01T02:09:17.706Z,99.90
2022-09-01T02:12:19.782Z,99.90
2022-09-01T02:15:12.561Z,99.90
2022-09-01T02:18:06.621Z,99.90
2022-09-01T02:21:00.353Z,99.90
2022-09-01T02:24:00.574Z,99.90
2022-09-01T02:26:54.405Z,99.90
2022-09-01T02:29:45.403Z,99.90
2022-09-01T02:32:37.404Z,99.90
2022-09-01T02:35:38.349Z,99.90
2022-09-01T02:38:33.936Z,99.90
2022-09-01T02:41:26.489Z,99.90
2022-09-01T02:44:26.410Z,99.90
2022-09-01T02:47:18.421Z,99.90
2022-09-01T02:50:14.358Z,99.90
2022-09-01T02:53:13.435Z,99.90
2022-09-01T02:56:09.746Z,99.90
2022-09-01T02:59:03.317Z,99.90
2022-09-01T03:01:58.247Z,99.90
2022-09-01T03:04:59.363Z,99.90
2022-09-01T03:07:56.538Z,99.90
2022-09-01T03:10:52.337Z,99.90
2022-09-01T03:13:44.374Z,99.90
2022-09-01T03:16:42.621Z,99.90
2022-09-01T03:19:44.510Z,99.90
2022-09-01T03:22:36.475Z,99.90
2022-09-01T03:25:31.684Z,99.90
2022-09-01T03:28:26.578Z,99.90
2022-09-01T03:31:20.579Z,99.90
2022-09-01T03:34:13.494Z,99.90
2022-09-01T03:37:09.789Z,99.90
2022-09-01T03:40:01.882Z,99.90
2022-09-01T03:42:54.101Z,99.90
2022-09-01T03:45:47.329Z,99.90
2022-09-01T03:48:37.934Z,99.90
2022-09-01T03:51:31.920Z,99.90
2022-09-01T03:54:25.937Z,99.90
2022-09-01T03:57:16.098Z,99.90
2022-09-01T04:00:20.560Z,99.90
2022-09-01T04:03:17.122Z,99.90
2022-09-01T04:06:10.584Z,99.90
2022-09-01T04:09:03.473Z,99.90
2022-09-01T04:11:53.974Z,99.90
2022-09-01T04:14:44.123Z,99.90
2022-09-01T04:17:46.930Z,99.90
2022-09-01T04:20:48.674Z,99.90
2022-09-01T04:23:39.381Z,99.90
2022-09-01T04:26:31.620Z,99.90
2022-09-01T04:29:27.453Z,99.90
2022-09-01T04:32:21.770Z,99.90
2022-09-01T04:35:17.374Z,99.90
2022-09-01T04:38:11.740Z,99.90
2022-09-01T04:41:02.238Z,99.90
2022-09-01T04:43:57.399Z,99.90
2022-09-01T04:46:56.935Z,99.90
2022-09-01T04:49:47.714Z,99.90
2022-09-01T04:52:37.955Z,99.90
2022-09-01T04:55:31.869Z,99.90
2022-09-01T04:58:22.669Z,99.90
2022-09-01T05:01:18.820Z,99.90
2022-09-01T05:07:16.133Z,99.90
2022-09-01T05:10:07.139Z,99.90
2022-09-01T05:13:00.514Z,99.90
2022-09-01T05:15:50.980Z,99.90
2022-09-01T05:18:45.293Z,99.90
2022-09-01T05:21:35.949Z,99.90
2022-09-01T05:24:32.397Z,99.90
2022-09-01T05:27:24.525Z,99.90
2022-09-01T05:30:21.465Z,99.90
2022-09-01T05:33:21.647Z,99.90
2022-09-01T05:36:15.832Z,99.90
2022-09-01T05:39:10.457Z,99.90
2022-09-01T05:42:05.888Z,99.90
2022-09-01T05:48:09.798Z,99.90
2022-09-01T05:51:22.272Z,99.90
2022-09-01T05:57:32.681Z,99.90
2022-09-01T06:00:21.266Z,99.90
2022-09-01T06:06:11.391Z,99.90
2022-09-01T06:09:03.526Z,99.90
2022-09-01T06:11:59.719Z,99.90
2022-09-01T06:14:51.677Z,94.40
2022-09-01T06:17:45.645Z,86.30
2022-09-01T06:20:37.804Z,88.50
2022-09-01T06:23:39.848Z,99.90
2022-09-01T06:29:18.015Z,99.90
2022-09-01T06:32:10.645Z,92.80
2022-09-01T06:37:58.279Z,70.90
2022-09-01T07:28:04.934Z,60.50
2022-09-01T07:51:57.428Z,57.00
2022-09-01T07:54:51.431Z,57.00
2022-09-01T07:57:43.307Z,53.10
2022-09-01T08:00:39.084Z,51.50
2022-09-01T08:03:38.121Z,51.10
2022-09-01T10:13:33.601Z,42.40
2022-09-01T10:44:32.059Z,43.20
2022-09-01T13:10:55.607Z,44.20
2022-09-01T13:26:16.406Z,45.20
2022-09-01T13:29:14.809Z,46.80
2022-09-01T13:32:18.519Z,47.60
2022-09-01T13:35:24.253Z,44.40
2022-09-01T13:41:36.187Z,45.60
2022-09-01T13:44:44.823Z,45.80
2022-09-01T16:36:21.871Z,42.30
2022-09-01T16:45:26.469Z,41.60
2022-09-01T17:55:30.547Z,49.40
2022-09-01T18:07:33.254Z,50.90
2022-09-01T18:26:04.845Z,52.70
2022-09-01T19:22:47.828Z,58.30
2022-09-01T19:57:29.166Z,64.70
2022-09-01T20:53:56.433Z,93.20
2022-09-01T20:59:55.053Z,95.60
2022-09-01T21:05:41.606Z,97.80
2022-09-01T21:11:38.629Z,99.60
2022-09-01T21:17:34.995Z,99.90
2022-09-01T21:20:33.370Z,99.90
2022-09-01T21:29:20.424Z,99.90
2022-09-01T21:32:14.409Z,99.90
2022-09-01T21:35:11.249Z,99.90
2022-09-01T21:40:48.975Z,99.90
2022-09-01T21:49:46.869Z,99.90
2022-09-01T21:52:40.771Z,99.90
2022-09-01T21:58:40.103Z,99.90
2022-09-01T22:22:18.696Z,99.90
2022-09-01T22:37:20.897Z,99.90
2022-09-01T22:43:14.043Z,99.90
2022-09-01T22:52:08.371Z,99.90
2022-09-01T22:57:52.542Z,99.90
2022-09-01T23:00:49.031Z,99.90
2022-09-01T23:21:27.473Z,99.90
2022-09-01T23:24:21.790Z,99.90
2022-09-01T23:27:23.619Z,99.90
2022-09-01T23:36:33.739Z,99.90
2022-09-01T23:51:20.390Z,99.90
